createdAt,value
2023-11-12T00:02:09.920Z,52.45
2023-11-12T00:04:37.643Z,42.30
2023-11-12T00:07:05.401Z,40.42
2023-11-12T00:09:33.059Z,43.60
2023-11-12T00:12:00.581Z,44.05
2023-11-12T00:14:28.215Z,38.30
2023-11-12T00:16:56.002Z,37.60
2023-11-12T00:19:23.449Z,38.13
2023-11-12T00:21:50.911Z,33.50
2023-11-12T00:24:19.016Z,34.75
2023-11-12T00:26:46.439Z,32.47
2023-11-12T00:29:13.925Z,33.08
2023-11-12T00:31:41.628Z,39.72
2023-11-12T00:34:09.285Z,33.63
2023-11-12T00:36:37.881Z,35.67
2023-11-12T00:39:05.574Z,46.08
2023-11-12T00:41:33.045Z,37.30
2023-11-12T00:44:00.652Z,34.10
2023-11-12T00:46:28.403Z,36.30
2023-11-12T00:48:56.798Z,35.95
2023-11-12T00:51:24.159Z,36.90
2023-11-12T00:53:51.852Z,36.38
2023-11-12T00:56:19.467Z,40.45
2023-11-12T00:58:47.163Z,43.85
2023-11-12T01:01:15.733Z,39.70
2023-11-12T01:03:43.420Z,36.92
2023-11-12T01:06:10.936Z,47.45
2023-11-12T01:08:39.127Z,35.53
2023-11-12T01:11:06.726Z,36.33
2023-11-12T01:13:34.549Z,37.92
2023-11-12T01:16:02.492Z,39.50
2023-11-12T01:18:33.028Z,37.17
2023-11-12T01:21:00.755Z,38.67
2023-11-12T01:23:28.243Z,37.78
2023-11-12T01:25:56.186Z,37.13
2023-11-12T01:28:23.547Z,37.92
2023-11-12T01:30:51.288Z,35.15
2023-11-12T01:33:21.173Z,36.33
2023-11-12T01:35:48.574Z,40.55
2023-11-12T01:38:15.929Z,36.17
2023-11-12T01:40:43.439Z,40.90
2023-11-12T01:43:11.486Z,37.03
2023-11-12T01:45:38.892Z,38.17
2023-11-12T01:48:07.420Z,43.00
2023-11-12T01:50:34.880Z,41.38
2023-11-12T01:53:03.273Z,42.15
2023-11-12T01:55:32.247Z,38.38
2023-11-12T01:57:59.885Z,40.92
2023-11-12T02:00:27.635Z,41.72
2023-11-12T02:02:55.971Z,39.30
2023-11-12T02:05:24.796Z,38.35
2023-11-12T02:07:53.001Z,37.42
2023-11-12T02:10:20.519Z,33.70
2023-11-12T02:12:48.916Z,29.67
2023-11-12T02:15:17.863Z,34.88
2023-11-12T02:17:48.700Z,32.03
2023-11-12T02:20:16.573Z,37.55
2023-11-12T02:22:45.233Z,35.22
2023-11-12T02:25:14.999Z,34.70
2023-11-12T02:27:42.980Z,37.08
2023-11-12T02:30:10.909Z,37.22
2023-11-12T02:32:39.303Z,39.05
2023-11-12T02:35:09.033Z,37.10
2023-11-12T02:37:38.025Z,38.53
2023-11-12T02:40:05.917Z,41.53
2023-11-12T02:42:34.763Z,38.47
2023-11-12T02:45:02.227Z,34.28
2023-11-12T02:47:29.600Z,38.08
2023-11-12T02:50:24.025Z,40.20
2023-11-12T02:52:51.656Z,38.67
2023-11-12T02:55:19.249Z,38.13
2023-11-12T02:57:48.043Z,41.40
2023-11-12T03:00:16.655Z,39.00
2023-11-12T03:02:47.964Z,43.55
2023-11-12T03:05:16.222Z,35.40
2023-11-12T03:07:43.994Z,36.13
2023-11-12T03:10:11.603Z,37.83
2023-11-12T03:12:39.914Z,40.97
2023-11-12T03:15:09.318Z,41.85
2023-11-12T03:17:38.074Z,40.60
2023-11-12T03:20:09.424Z,42.00
2023-11-12T03:22:37.964Z,45.53
2023-11-12T03:25:06.620Z,42.40
2023-11-12T03:27:34.744Z,44.67
2023-11-12T03:30:02.795Z,41.13
2023-11-12T03:32:30.288Z,41.65
2023-11-12T03:34:59.444Z,34.97
2023-11-12T03:37:26.831Z,41.03
2023-11-12T03:39:54.251Z,40.78
2023-11-12T03:42:21.863Z,39.40
2023-11-12T03:44:52.620Z,41.40
2023-11-12T03:47:20.126Z,45.00
2023-11-12T03:49:47.518Z,44.92
2023-11-12T03:52:15.959Z,41.35
2023-11-12T03:54:43.594Z,36.15
2023-11-12T03:57:11.300Z,36.30
2023-11-12T03:59:38.759Z,38.80
2023-11-12T04:02:07.191Z,43.92
2023-11-12T04:04:34.862Z,41.88
2023-11-12T04:07:02.354Z,42.47
2023-11-12T04:09:29.716Z,47.38
2023-11-12T04:11:57.161Z,45.03
2023-11-12T04:14:24.672Z,42.63
2023-11-12T04:16:52.337Z,49.58
2023-11-12T04:19:19.774Z,42.55
2023-11-12T04:21:48.705Z,43.90
2023-11-12T04:24:16.339Z,47.90
2023-11-12T04:26:44.363Z,47.65
2023-11-12T04:29:14.657Z,47.85
2023-11-12T04:34:10.461Z,40.13
2023-11-12T04:36:37.913Z,45.78
2023-11-12T04:39:05.890Z,44.85
2023-11-12T04:41:33.413Z,41.00
2023-11-12T04:44:00.970Z,47.15
2023-11-12T04:46:29.511Z,48.85
2023-11-12T04:48:57.024Z,47.60
2023-11-12T04:51:24.610Z,50.67
2023-11-12T04:53:52.224Z,43.20
2023-11-12T04:56:19.850Z,49.58
2023-11-12T04:58:47.269Z,44.88
2023-11-12T05:01:15.109Z,47.42
2023-11-12T05:03:42.590Z,54.60
2023-11-12T05:06:10.664Z,42.40
2023-11-12T05:08:39.734Z,51.38
2023-11-12T05:11:07.284Z,49.17
2023-11-12T05:13:34.785Z,49.67
2023-11-12T05:16:02.325Z,62.17
2023-11-12T05:18:30.567Z,47.08
2023-11-12T05:20:58.186Z,47.85
2023-11-12T05:23:25.681Z,47.38
2023-11-12T05:25:54.254Z,47.58
2023-11-12T05:28:21.761Z,51.50
2023-11-12T05:30:49.719Z,47.47
2023-11-12T05:33:17.233Z,51.10
2023-11-12T05:35:44.724Z,46.40
2023-11-12T05:38:12.056Z,47.83
2023-11-12T05:40:41.225Z,45.75
2023-11-12T05:43:09.053Z,49.05
2023-11-12T05:45:36.693Z,47.35
2023-11-12T05:48:04.220Z,39.45
2023-11-12T05:50:31.803Z,46.60
2023-11-12T05:52:59.092Z,42.50
2023-11-12T05:55:26.970Z,48.20
2023-11-12T05:57:54.354Z,47.15
2023-11-12T06:00:21.939Z,47.08
2023-11-12T06:02:49.663Z,51.20
2023-11-12T06:05:17.420Z,42.60
2023-11-12T06:07:44.938Z,45.83
2023-11-12T06:10:12.858Z,38.30
2023-11-12T06:12:40.364Z,43.88
2023-11-12T06:15:08.142Z,33.35
2023-11-12T06:17:35.752Z,34.88
2023-11-12T06:20:04.939Z,39.55
2023-11-12T06:22:32.572Z,33.70
2023-11-12T06:25:00.082Z,36.53
2023-11-12T06:27:28.548Z,35.63
2023-11-12T06:29:55.991Z,32.70
2023-11-12T06:32:23.443Z,34.63
2023-11-12T06:34:50.855Z,36.10
2023-11-12T06:37:18.339Z,32.75
2023-11-12T06:39:47.606Z,31.00
2023-11-12T06:42:15.206Z,36.15
2023-11-12T06:44:42.737Z,35.67
2023-11-12T06:47:10.791Z,33.50
2023-11-12T06:49:38.213Z,33.05
2023-11-12T06:52:06.264Z,32.55
2023-11-12T06:54:33.770Z,34.30
2023-11-12T06:57:02.113Z,34.80
2023-11-12T06:59:29.648Z,31.08
2023-11-12T07:01:56.982Z,26.48
2023-11-12T07:04:24.585Z,31.98
2023-11-12T07:07:01.945Z,32.03
2023-11-12T07:09:37.368Z,28.50
2023-11-12T07:12:06.008Z,32.08
2023-11-12T07:14:33.547Z,30.55
2023-11-12T07:17:01.100Z,31.80
2023-11-12T07:19:28.689Z,28.80
2023-11-12T07:21:56.223Z,32.63
2023-11-12T07:24:23.877Z,31.67
2023-11-12T07:26:51.569Z,34.83
2023-11-12T07:29:19.318Z,32.17
2023-11-12T07:31:46.871Z,34.20
2023-11-12T07:34:14.232Z,35.55
2023-11-12T07:36:41.716Z,34.35
2023-11-12T07:39:09.524Z,32.60
2023-11-12T07:41:38.538Z,28.67
2023-11-12T07:44:07.356Z,30.08
2023-11-12T07:46:34.826Z,31.00
2023-11-12T07:49:02.410Z,32.47
2023-11-12T07:51:30.051Z,29.88
2023-11-12T07:53:57.575Z,30.70
2023-11-12T07:56:28.229Z,32.28
2023-11-12T07:58:59.042Z,31.20
2023-11-12T08:01:27.457Z,29.55
2023-11-12T08:03:55.023Z,32.75
2023-11-12T08:06:22.702Z,30.10
2023-11-12T08:08:50.192Z,41.42
2023-11-12T08:11:17.633Z,33.70
2023-11-12T08:13:45.245Z,32.42
2023-11-12T08:16:12.765Z,34.13
2023-11-12T08:18:44.771Z,30.30
2023-11-12T08:21:13.810Z,33.35
2023-11-12T08:23:41.215Z,35.97
2023-11-12T08:26:08.704Z,31.13
2023-11-12T08:28:36.219Z,29.55
2023-11-12T08:31:03.764Z,31.08
2023-11-12T08:33:31.174Z,29.13
2023-11-12T08:35:59.353Z,33.33
2023-11-12T08:38:26.830Z,32.72
2023-11-12T08:40:56.087Z,27.55
2023-11-12T08:43:25.585Z,33.55
2023-11-12T08:45:53.153Z,31.13
2023-11-12T08:48:21.954Z,28.20
2023-11-12T08:50:49.649Z,31.98
2023-11-12T08:53:16.970Z,33.88
2023-11-12T08:55:44.971Z,31.95
2023-11-12T08:58:12.544Z,31.25
2023-11-12T09:00:40.650Z,31.27
2023-11-12T09:03:08.158Z,28.30
2023-11-12T09:05:37.029Z,31.15
2023-11-12T09:08:04.792Z,32.35
2023-11-12T09:10:33.234Z,31.50
2023-11-12T09:13:01.544Z,30.67
2023-11-12T09:15:29.015Z,29.15
2023-11-12T09:17:57.008Z,27.23
2023-11-12T09:20:24.546Z,28.98
2023-11-12T09:22:52.320Z,28.23
2023-11-12T09:25:19.825Z,30.52
2023-11-12T09:27:47.262Z,30.52
2023-11-12T09:30:15.411Z,30.95
2023-11-12T09:32:43.273Z,34.03
2023-11-12T09:35:11.460Z,31.67
2023-11-12T09:37:39.060Z,32.45
2023-11-12T09:40:12.287Z,31.55
2023-11-12T09:42:42.928Z,31.90
2023-11-12T09:45:11.333Z,31.88
2023-11-12T09:48:04.582Z,36.38
2023-11-12T09:50:32.864Z,34.92
2023-11-12T09:53:04.649Z,35.58
2023-11-12T09:55:32.479Z,33.33
2023-11-12T09:58:03.053Z,29.98
2023-11-12T10:00:35.713Z,33.22
2023-11-12T10:03:07.972Z,32.13
2023-11-12T10:05:36.238Z,32.05
2023-11-12T10:08:06.158Z,31.15
2023-11-12T10:10:35.164Z,30.35
2023-11-12T10:13:06.100Z,29.80
2023-11-12T10:15:37.771Z,29.80
2023-11-12T10:18:05.849Z,28.40
2023-11-12T10:20:41.431Z,29.02
2023-11-12T10:25:53.109Z,28.88
2023-11-12T10:28:20.751Z,28.63
2023-11-12T10:30:55.360Z,27.77
2023-11-12T10:33:30.547Z,27.73
2023-11-12T10:35:57.982Z,27.85
2023-11-12T10:38:25.665Z,25.30
2023-11-12T10:41:02.289Z,24.83
2023-11-12T10:43:33.986Z,21.80
2023-11-12T10:46:05.901Z,20.90
2023-11-12T10:48:38.879Z,19.13
2023-11-12T10:51:07.904Z,20.95
2023-11-12T10:53:37.604Z,19.27
2023-11-12T10:56:07.475Z,19.52
2023-11-12T10:58:36.743Z,19.83
2023-11-12T11:01:06.405Z,20.50
2023-11-12T11:03:35.685Z,16.37
2023-11-12T11:06:04.570Z,15.70
2023-11-12T11:08:33.008Z,15.95
2023-11-12T11:11:01.596Z,16.45
2023-11-12T11:13:30.496Z,15.65
2023-11-12T11:15:59.682Z,14.63
2023-11-12T11:18:30.646Z,15.15
2023-11-12T11:21:19.443Z,15.32
2023-11-12T11:23:54.891Z,14.48
2023-11-12T11:26:42.122Z,13.13
2023-11-12T11:29:11.665Z,11.32
2023-11-12T11:31:40.158Z,11.75
2023-11-12T11:34:14.701Z,12.43
2023-11-12T11:36:58.392Z,13.43
2023-11-12T11:39:30.131Z,12.32
2023-11-12T11:41:58.140Z,14.23
2023-11-12T11:44:42.399Z,14.00
2023-11-12T11:47:21.887Z,12.02
2023-11-12T11:50:12.590Z,11.23
2023-11-12T11:52:43.850Z,12.07
2023-11-12T11:55:27.606Z,10.85
2023-11-12T11:57:58.220Z,10.63
2023-11-12T12:00:25.619Z,10.65
2023-11-12T12:02:53.001Z,10.70
2023-11-12T12:05:34.812Z,11.85
2023-11-12T12:08:05.463Z,10.90
2023-11-12T12:10:35.731Z,10.40
2023-11-12T12:13:04.482Z,8.57
2023-11-12T12:15:32.900Z,8.13
2023-11-12T12:18:01.247Z,7.78
2023-11-12T12:20:41.174Z,7.63
2023-11-12T12:23:08.756Z,7.07
2023-11-12T12:25:51.319Z,8.23
2023-11-12T12:28:21.841Z,8.00
2023-11-12T12:33:21.152Z,7.82
2023-11-12T12:35:50.990Z,7.47
2023-11-12T12:38:18.448Z,7.57
2023-11-12T12:40:52.256Z,7.28
2023-11-12T12:43:21.259Z,9.07
2023-11-12T12:45:58.522Z,7.97
2023-11-12T12:48:26.066Z,7.50
2023-11-12T12:51:00.646Z,8.25
2023-11-12T12:53:28.956Z,8.82
2023-11-12T12:55:57.337Z,8.45
2023-11-12T12:58:41.598Z,7.40
2023-11-12T13:01:12.641Z,8.82
2023-11-12T13:03:42.650Z,8.10
2023-11-12T13:06:11.957Z,7.75
2023-11-12T13:08:42.152Z,7.20
2023-11-12T13:13:39.494Z,7.20
2023-11-12T13:16:11.761Z,7.20
2023-11-12T13:18:42.409Z,6.75
2023-11-12T13:21:11.612Z,7.97
2023-11-12T13:23:40.055Z,8.23
2023-11-12T13:26:07.688Z,8.63
2023-11-12T13:28:37.503Z,8.65
2023-11-12T13:31:06.298Z,9.90
2023-11-12T13:33:34.956Z,10.13
2023-11-12T13:36:04.182Z,9.00
2023-11-12T13:38:37.291Z,8.85
2023-11-12T13:41:04.776Z,8.82
2023-11-12T13:43:33.799Z,9.18
2023-11-12T13:46:01.174Z,9.88
2023-11-12T13:48:29.652Z,10.18
2023-11-12T13:50:57.006Z,10.18
2023-11-12T13:53:25.961Z,10.25
2023-11-12T13:55:59.636Z,11.23
2023-11-12T13:58:28.880Z,11.10
2023-11-12T14:00:56.250Z,10.48
2023-11-12T14:03:23.580Z,10.75
2023-11-12T14:05:50.862Z,10.00
2023-11-12T14:08:18.715Z,10.50
2023-11-12T14:10:49.491Z,10.00
2023-11-12T14:13:16.681Z,10.68
2023-11-12T14:15:45.365Z,11.05
2023-11-12T14:18:12.829Z,10.25
2023-11-12T14:20:40.103Z,9.88
2023-11-12T14:23:07.935Z,13.88
2023-11-12T14:25:35.225Z,15.75
2023-11-12T14:28:04.522Z,14.55
2023-11-12T14:30:34.476Z,11.40
2023-11-12T14:33:01.781Z,11.18
2023-11-12T14:35:29.377Z,11.23
2023-11-12T14:37:58.930Z,13.38
2023-11-12T14:40:28.152Z,13.73
2023-11-12T14:42:56.509Z,15.63
2023-11-12T14:45:30.427Z,11.88
2023-11-12T14:48:01.106Z,10.40
2023-11-12T14:52:59.129Z,10.18
2023-11-12T14:55:27.009Z,10.20
2023-11-12T14:57:58.274Z,9.18
2023-11-12T15:00:36.661Z,9.98
2023-11-12T15:03:07.615Z,10.93
2023-11-12T15:05:35.363Z,11.05
2023-11-12T15:08:02.682Z,10.95
2023-11-12T15:10:30.588Z,10.05
2023-11-12T15:12:58.826Z,11.23
2023-11-12T15:15:26.504Z,11.57
2023-11-12T15:17:55.861Z,11.88
2023-11-12T15:20:23.326Z,10.85
2023-11-12T15:22:52.274Z,11.02
2023-11-12T15:25:20.220Z,9.97
2023-11-12T15:27:50.242Z,11.10
2023-11-12T15:30:19.087Z,10.55
2023-11-12T15:32:47.201Z,10.48
2023-11-12T15:35:15.813Z,10.45
2023-11-12T15:37:44.097Z,10.85
2023-11-12T15:40:24.656Z,10.95
2023-11-12T15:42:53.495Z,11.98
2023-11-12T15:45:25.045Z,11.55
2023-11-12T15:47:53.466Z,10.45
2023-11-12T15:50:23.223Z,11.43
2023-11-12T15:52:51.833Z,11.40
2023-11-12T15:55:19.315Z,11.77
2023-11-12T15:57:47.553Z,10.70
2023-11-12T16:00:15.973Z,12.45
2023-11-12T16:02:47.928Z,10.10
2023-11-12T16:05:15.680Z,12.32
2023-11-12T16:07:44.804Z,11.40
2023-11-12T16:10:14.233Z,11.68
2023-11-12T16:12:41.951Z,9.68
2023-11-12T16:15:14.269Z,10.07
2023-11-12T16:17:43.638Z,9.98
2023-11-12T16:20:13.973Z,9.40
2023-11-12T16:22:41.844Z,9.85
2023-11-12T16:25:10.158Z,10.32
2023-11-12T16:27:38.014Z,10.10
2023-11-12T16:30:06.472Z,19.50
2023-11-12T16:32:33.803Z,12.63
2023-11-12T16:35:01.225Z,10.07
2023-11-12T16:37:28.521Z,10.63
2023-11-12T16:39:56.346Z,10.35
2023-11-12T16:42:23.967Z,11.57
2023-11-12T16:44:51.239Z,11.18
2023-11-12T16:47:24.794Z,11.55
2023-11-12T16:49:54.828Z,10.40
2023-11-12T16:52:23.173Z,10.77
2023-11-12T16:54:50.746Z,10.63
2023-11-12T16:57:17.990Z,10.32
2023-11-12T16:59:45.238Z,10.25
2023-11-12T17:02:15.316Z,10.85
2023-11-12T17:04:43.336Z,11.10
2023-11-12T17:07:12.599Z,10.88
2023-11-12T17:09:46.339Z,10.75
2023-11-12T17:12:15.273Z,11.57
2023-11-12T17:14:43.728Z,11.77
2023-11-12T17:17:11.102Z,11.00
2023-11-12T17:19:38.283Z,12.38
2023-11-12T17:22:05.684Z,11.93
2023-11-12T17:24:33.554Z,11.82
2023-11-12T17:27:00.956Z,11.13
2023-11-12T17:29:28.457Z,12.05
2023-11-12T17:31:55.730Z,11.88
2023-11-12T17:34:23.028Z,11.32
2023-11-12T17:36:50.401Z,11.30
2023-11-12T17:39:17.967Z,11.40
2023-11-12T17:41:48.675Z,10.98
2023-11-12T17:44:16.718Z,12.02
2023-11-12T17:46:46.349Z,11.10
2023-11-12T17:49:14.337Z,12.07
2023-11-12T17:51:42.896Z,12.07
2023-11-12T17:54:10.304Z,11.95
2023-11-12T17:56:38.472Z,11.32
2023-11-12T17:59:06.502Z,13.30
2023-11-12T18:01:34.672Z,10.68
2023-11-12T18:04:02.185Z,9.48
2023-11-12T18:06:29.993Z,8.10
2023-11-12T18:08:57.368Z,7.15
2023-11-12T18:11:24.700Z,7.00
2023-11-12T18:13:51.989Z,6.65
2023-11-12T18:16:22.572Z,5.57
2023-11-12T18:18:50.342Z,5.90
2023-11-12T18:21:17.849Z,6.07
2023-11-12T18:23:45.190Z,5.35
2023-11-12T18:26:14.757Z,5.30
2023-11-12T18:28:41.970Z,5.57
2023-11-12T18:31:09.281Z,5.20
2023-11-12T18:33:36.730Z,5.13
2023-11-12T18:36:04.130Z,5.13
2023-11-12T18:38:33.263Z,5.30
2023-11-12T18:41:00.577Z,5.47
2023-11-12T18:43:28.270Z,5.53
2023-11-12T18:45:57.948Z,5.80
2023-11-12T18:48:25.480Z,6.97
2023-11-12T18:50:52.979Z,7.03
2023-11-12T18:53:22.763Z,7.68
2023-11-12T18:55:50.053Z,7.05
2023-11-12T18:58:18.214Z,6.90
2023-11-12T19:00:45.923Z,7.57
2023-11-12T19:03:13.457Z,7.75
2023-11-12T19:05:41.009Z,6.93
2023-11-12T19:08:10.765Z,7.05
2023-11-12T19:10:38.749Z,7.85
2023-11-12T19:13:06.087Z,7.18
2023-11-12T19:15:33.499Z,7.63
2023-11-12T19:18:00.950Z,8.65
2023-11-12T19:20:28.222Z,8.95
2023-11-12T19:22:55.562Z,8.77
2023-11-12T19:25:23.026Z,8.95
2023-11-12T19:27:50.961Z,8.70
2023-11-12T19:30:18.195Z,9.43
2023-11-12T19:32:46.261Z,9.25
2023-11-12T19:35:14.308Z,9.43
2023-11-12T19:37:41.682Z,8.25
2023-11-12T19:40:09.929Z,9.30
2023-11-12T19:42:37.730Z,9.10
2023-11-12T19:45:08.397Z,9.65
2023-11-12T19:47:35.723Z,9.45
2023-11-12T19:50:03.059Z,10.60
2023-11-12T19:52:30.462Z,9.32
2023-11-12T19:54:57.707Z,10.80
2023-11-12T19:57:27.399Z,9.85
2023-11-12T19:59:56.931Z,9.68
2023-11-12T20:02:24.343Z,8.90
2023-11-12T20:04:52.980Z,9.90
2023-11-12T20:07:20.165Z,9.15
2023-11-12T20:09:48.164Z,8.77
2023-11-12T20:12:15.785Z,8.48
2023-11-12T20:14:43.896Z,8.70
2023-11-12T20:17:13.650Z,9.40
2023-11-12T20:19:43.116Z,9.05
2023-11-12T20:22:11.757Z,10.70
2023-11-12T20:24:39.381Z,9.10
2023-11-12T20:27:10.626Z,9.35
2023-11-12T20:29:38.196Z,8.70
2023-11-12T20:32:05.627Z,9.55
2023-11-12T20:34:32.897Z,8.10
2023-11-12T20:37:00.539Z,8.70
2023-11-12T20:39:27.886Z,9.05
2023-11-12T20:41:57.771Z,9.75
2023-11-12T20:44:25.174Z,9.05
2023-11-12T20:46:52.539Z,9.60
2023-11-12T20:49:19.984Z,9.38
2023-11-12T20:51:48.443Z,9.73
2023-11-12T20:54:19.392Z,9.98
2023-11-12T20:56:46.728Z,10.68
2023-11-12T20:59:14.422Z,10.30
2023-11-12T21:01:41.938Z,10.70
2023-11-12T21:04:12.849Z,9.45
2023-11-12T21:06:42.160Z,10.63
2023-11-12T21:09:10.151Z,10.10
2023-11-12T21:11:41.215Z,10.07
2023-11-12T21:14:13.169Z,11.02
2023-11-12T21:16:41.675Z,10.88
2023-11-12T21:19:11.183Z,9.73
2023-11-12T21:21:40.089Z,12.40
2023-11-12T21:24:09.999Z,12.25
2023-11-12T21:26:38.706Z,11.10
2023-11-12T21:29:05.998Z,11.88
2023-11-12T21:31:33.280Z,12.55
2023-11-12T21:34:01.298Z,11.27
2023-11-12T21:36:28.577Z,12.05
2023-11-12T21:38:57.122Z,12.00
2023-11-12T21:41:24.567Z,11.32
2023-11-12T21:43:54.575Z,11.45
2023-11-12T21:46:22.027Z,11.93
2023-11-12T21:48:51.668Z,11.82
2023-11-12T21:51:19.623Z,11.02
2023-11-12T21:53:49.537Z,13.10
2023-11-12T21:56:16.887Z,11.95
2023-11-12T21:58:44.071Z,11.85
2023-11-12T22:01:11.873Z,10.75
2023-11-12T22:03:39.677Z,11.63
2023-11-12T22:06:11.983Z,11.70
2023-11-12T22:08:39.382Z,10.45
2023-11-12T22:11:06.709Z,10.70
2023-11-12T22:13:34.055Z,11.00
2023-11-12T22:16:01.631Z,12.40
2023-11-12T22:18:29.724Z,11.50
2023-11-12T22:20:57.448Z,11.45
2023-11-12T22:23:24.719Z,10.88
2023-11-12T22:25:52.088Z,10.70
2023-11-12T22:28:19.448Z,11.60
2023-11-12T22:30:47.024Z,10.45
2023-11-12T22:33:14.419Z,10.57
2023-11-12T22:35:41.727Z,9.77
2023-11-12T22:38:08.962Z,9.50
2023-11-12T22:40:37.575Z,10.70
2023-11-12T22:43:04.824Z,10.05
2023-11-12T22:45:32.814Z,10.32
2023-11-12T22:48:00.173Z,13.05
2023-11-12T22:50:28.832Z,13.40
2023-11-12T22:52:56.129Z,10.75
2023-11-12T22:55:23.411Z,9.90
2023-11-12T22:57:52.247Z,9.93
2023-11-12T23:00:42.793Z,9.88
2023-11-12T23:03:15.120Z,8.70
2023-11-12T23:05:47.213Z,8.57
2023-11-12T23:08:15.405Z,8.43
2023-11-12T23:10:44.298Z,10.07
2023-11-12T23:13:13.715Z,8.63
2023-11-12T23:15:41.528Z,8.20
2023-11-12T23:18:08.880Z,7.95
2023-11-12T23:20:36.306Z,7.50
2023-11-12T23:23:04.215Z,8.00
2023-11-12T23:25:31.747Z,7.80
2023-11-12T23:28:00.245Z,7.68
2023-11-12T23:30:30.945Z,7.82
2023-11-12T23:32:58.200Z,7.45
2023-11-12T23:35:27.697Z,7.40
2023-11-12T23:37:55.371Z,7.03
2023-11-12T23:40:22.648Z,6.50
2023-11-12T23:42:49.895Z,7.30
2023-11-12T23:45:18.083Z,6.57
2023-11-12T23:47:45.350Z,5.93
2023-11-12T23:50:12.865Z,5.82
2023-11-12T23:52:40.250Z,5.63
2023-11-12T23:55:07.889Z,5.25
2023-11-12T23:57:36.249Z,4.97
